PWSweather.com
Personal Weather Stations
Station Observations
IPORTUGA89
BarosaPT

BarosaPT

Lat: 39.754028, Lon: -8.843

Elevation: 98

Station Type: Davis Vp2

High Low Average
Temperature 77.5°F25.3°C 59.9°F15.5°C 66.8°F19.3°C
Dew Point 65.1°F18.4°C 57.7°F14.3°C 61.4°F16.3°C
Winds 8.9 mph 14.3 kmh Calm Calm 3.0 mph WSW4.8 kmh WSW
Wind Gusts 17.0 mph27.4 kmh -- 7.0 mph11.3 kmh
Humidity 95% 62% 84%
Pressure 30.05 in1017.6 mb 29.96 in1014.6 mb -
Precipitation 0.00 in0.0 mm - -
Hour Temp Dew Point Humidity Winds Wind Gusts Pressure Precip Precip Rate Daily Precip Total
12:08 AM 61.0°F16.1°C 58.6°F14.8°C 92% Calm Calm 2.0 mph3.2 kmh 29.97 in1014.9 mb 0.00 in0.0 mm 0.00 in0.0 mm 0.00 in0.0 mm
12:18 AM 61.0°F16.1°C 58.6°F14.8°C 92% 0.9 mph NW1.4 kmh NW 2.0 mph3.2 kmh 29.97 in1014.9 mb 0.00 in0.0 mm 0.00 in0.0 mm 0.00 in0.0 mm
12:28 AM 60.6°F15.9°C 58.3°F14.6°C 92% 0.9 mph E1.4 kmh E 2.9 mph4.7 kmh 29.97 in1014.9 mb 0.00 in0.0 mm 0.00 in0.0 mm 0.00 in0.0 mm
12:38 AM 60.4°F15.8°C 58.1°F14.5°C 92% 0.9 mph E1.4 kmh E 2.0 mph3.2 kmh 29.97 in1014.9 mb 0.00 in0.0 mm 0.00 in0.0 mm 0.00 in0.0 mm
12:48 AM 60.3°F15.7°C 58.3°F14.6°C 93% Calm Calm -- 29.97 in1014.9 mb 0.00 in0.0 mm 0.00 in0.0 mm 0.00 in0.0 mm
12:59 AM 60.1°F15.6°C 57.7°F14.3°C 92% Calm Calm -- 29.97 in1014.9 mb 0.00 in0.0 mm 0.00 in0.0 mm 0.00 in0.0 mm
01:09 AM 60.1°F15.6°C 57.7°F14.3°C 92% Calm Calm -- 29.97 in1014.9 mb 0.00 in0.0 mm 0.00 in0.0 mm 0.00 in0.0 mm
01:19 AM 59.9°F15.5°C 57.9°F14.4°C 93% Calm Calm -- 29.97 in1014.9 mb 0.00 in0.0 mm 0.00 in0.0 mm 0.00 in0.0 mm
01:29 AM 60.1°F15.6°C 58.1°F14.5°C 93% Calm Calm -- 29.96 in1014.6 mb 0.00 in0.0 mm 0.00 in0.0 mm 0.00 in0.0 mm
01:39 AM 60.1°F15.6°C 58.1°F14.5°C 93% Calm Calm -- 29.96 in1014.6 mb 0.00 in0.0 mm 0.00 in0.0 mm 0.00 in0.0 mm
01:49 AM 60.4°F15.8°C 58.5°F14.7°C 93% Calm Calm -- 29.96 in1014.6 mb 0.00 in0.0 mm 0.00 in0.0 mm 0.00 in0.0 mm
01:59 AM 60.4°F15.8°C 58.5°F14.7°C 93% Calm Calm -- 29.96 in1014.6 mb 0.00 in0.0 mm 0.00 in0.0 mm 0.00 in0.0 mm
02:09 AM 60.4°F15.8°C 58.5°F14.7°C 93% Calm Calm -- 29.96 in1014.6 mb 0.00 in0.0 mm 0.00 in0.0 mm 0.00 in0.0 mm
02:20 AM 60.3°F15.7°C 58.3°F14.6°C 93% Calm Calm -- 29.96 in1014.6 mb 0.00 in0.0 mm 0.00 in0.0 mm 0.00 in0.0 mm
02:30 AM 59.9°F15.5°C 57.9°F14.4°C 93% 0.9 mph E1.4 kmh E 4.0 mph6.4 kmh 29.96 in1014.6 mb 0.00 in0.0 mm 0.00 in0.0 mm 0.00 in0.0 mm
02:40 AM 60.1°F15.6°C 58.1°F14.5°C 93% 0.9 mph E1.4 kmh E 2.0 mph3.2 kmh 29.96 in1014.6 mb 0.00 in0.0 mm 0.00 in0.0 mm 0.00 in0.0 mm
02:50 AM 60.1°F15.6°C 58.1°F14.5°C 93% 0.9 mph E1.4 kmh E 2.0 mph3.2 kmh 29.97 in1014.9 mb 0.00 in0.0 mm 0.00 in0.0 mm 0.00 in0.0 mm
03:00 AM 60.3°F15.7°C 58.3°F14.6°C 93% 2.0 mph NW3.2 kmh NW 4.0 mph6.4 kmh 29.97 in1014.9 mb 0.00 in0.0 mm 0.00 in0.0 mm 0.00 in0.0 mm
03:10 AM 60.6°F15.9°C 58.8°F14.9°C 94% 2.0 mph E3.2 kmh E 2.9 mph4.7 kmh 29.97 in1014.9 mb 0.00 in0.0 mm 0.00 in0.0 mm 0.00 in0.0 mm
03:20 AM 61.0°F16.1°C 59.2°F15.1°C 94% 0.9 mph E1.4 kmh E 2.9 mph4.7 kmh 29.97 in1014.9 mb 0.00 in0.0 mm 0.00 in0.0 mm 0.00 in0.0 mm
03:30 AM 61.2°F16.2°C 59.4°F15.2°C 94% 2.0 mph NW3.2 kmh NW 4.9 mph7.9 kmh 29.97 in1014.9 mb 0.00 in0.0 mm 0.00 in0.0 mm 0.00 in0.0 mm
03:40 AM 61.5°F16.4°C 59.7°F15.4°C 94% 0.9 mph NW1.4 kmh NW 4.9 mph7.9 kmh 29.98 in1015.2 mb 0.00 in0.0 mm 0.00 in0.0 mm 0.00 in0.0 mm
03:50 AM 61.9°F16.6°C 60.1°F15.6°C 94% Calm Calm 2.0 mph3.2 kmh 29.98 in1015.2 mb 0.00 in0.0 mm 0.00 in0.0 mm 0.00 in0.0 mm
04:00 AM 62.1°F16.7°C 60.3°F15.7°C 94% Calm Calm 2.0 mph3.2 kmh 29.98 in1015.2 mb 0.00 in0.0 mm 0.00 in0.0 mm 0.00 in0.0 mm
04:10 AM 62.1°F16.7°C 60.3°F15.7°C 94% 0.9 mph NW1.4 kmh NW 2.0 mph3.2 kmh 29.98 in1015.2 mb 0.00 in0.0 mm 0.00 in0.0 mm 0.00 in0.0 mm
04:20 AM 62.1°F16.7°C 60.3°F15.7°C 94% Calm Calm -- 29.98 in1015.2 mb 0.00 in0.0 mm 0.00 in0.0 mm 0.00 in0.0 mm
04:30 AM 62.2°F16.8°C 60.4°F15.8°C 94% Calm Calm -- 29.99 in1015.6 mb 0.00 in0.0 mm 0.00 in0.0 mm 0.00 in0.0 mm
04:41 AM 62.2°F16.8°C 60.4°F15.8°C 94% Calm Calm 4.0 mph6.4 kmh 29.99 in1015.6 mb 0.00 in0.0 mm 0.00 in0.0 mm 0.00 in0.0 mm
04:51 AM 62.8°F17.1°C 61.0°F16.1°C 94% 4.0 mph NW6.4 kmh NW 8.1 mph13.0 kmh 29.99 in1015.6 mb 0.00 in0.0 mm 0.00 in0.0 mm 0.00 in0.0 mm
05:01 AM 62.8°F17.1°C 61.0°F16.1°C 94% 2.9 mph NW4.7 kmh NW 6.9 mph11.1 kmh 29.99 in1015.6 mb 0.00 in0.0 mm 0.00 in0.0 mm 0.00 in0.0 mm
05:11 AM 62.6°F17.0°C 60.8°F16.0°C 94% 0.9 mph NW1.4 kmh NW 4.0 mph6.4 kmh 29.99 in1015.6 mb 0.00 in0.0 mm 0.00 in0.0 mm 0.00 in0.0 mm
05:21 AM 62.4°F16.9°C 60.6°F15.9°C 94% 2.0 mph NW3.2 kmh NW 4.0 mph6.4 kmh 29.99 in1015.6 mb 0.00 in0.0 mm 0.00 in0.0 mm 0.00 in0.0 mm
05:31 AM 62.4°F16.9°C 60.6°F15.9°C 94% 0.9 mph WNW1.4 kmh WNW 4.0 mph6.4 kmh 30.00 in1015.9 mb 0.00 in0.0 mm 0.00 in0.0 mm 0.00 in0.0 mm
05:41 AM 62.2°F16.8°C 60.4°F15.8°C 94% 0.9 mph NW1.4 kmh NW 2.9 mph4.7 kmh 30.00 in1015.9 mb 0.00 in0.0 mm 0.00 in0.0 mm 0.00 in0.0 mm
05:51 AM 62.4°F16.9°C 60.6°F15.9°C 94% 0.9 mph WNW1.4 kmh WNW 4.0 mph6.4 kmh 30.00 in1015.9 mb 0.00 in0.0 mm 0.00 in0.0 mm 0.00 in0.0 mm
06:01 AM 62.4°F16.9°C 60.6°F15.9°C 94% 0.9 mph WNW1.4 kmh WNW 2.0 mph3.2 kmh 30.01 in1016.3 mb 0.00 in0.0 mm 0.00 in0.0 mm 0.00 in0.0 mm
06:11 AM 62.4°F16.9°C 60.6°F15.9°C 94% Calm Calm 0.9 mph1.4 kmh 30.01 in1016.3 mb 0.00 in0.0 mm 0.00 in0.0 mm 0.00 in0.0 mm
06:22 AM 62.4°F16.9°C 60.6°F15.9°C 94% Calm Calm 0.9 mph1.4 kmh 30.01 in1016.3 mb 0.00 in0.0 mm 0.00 in0.0 mm 0.00 in0.0 mm
06:32 AM 62.4°F16.9°C 60.6°F15.9°C 94% Calm Calm 2.0 mph3.2 kmh 30.01 in1016.3 mb 0.00 in0.0 mm 0.00 in0.0 mm 0.00 in0.0 mm
06:42 AM 62.4°F16.9°C 60.6°F15.9°C 94% Calm Calm 0.9 mph1.4 kmh 30.02 in1016.6 mb 0.00 in0.0 mm 0.00 in0.0 mm 0.00 in0.0 mm
06:52 AM 62.4°F16.9°C 60.6°F15.9°C 94% 0.9 mph WNW1.4 kmh WNW 2.0 mph3.2 kmh 30.02 in1016.6 mb 0.00 in0.0 mm 0.00 in0.0 mm 0.00 in0.0 mm
07:02 AM 62.8°F17.1°C 61.3°F16.3°C 95% 0.9 mph WNW1.4 kmh WNW 2.0 mph3.2 kmh 30.03 in1016.9 mb 0.00 in0.0 mm 0.00 in0.0 mm 0.00 in0.0 mm
07:12 AM 62.8°F17.1°C 61.3°F16.3°C 95% 0.9 mph WNW1.4 kmh WNW 2.0 mph3.2 kmh 30.03 in1016.9 mb 0.00 in0.0 mm 0.00 in0.0 mm 0.00 in0.0 mm
07:22 AM 63.0°F17.2°C 61.5°F16.4°C 95% 0.9 mph SSE1.4 kmh SSE 4.0 mph6.4 kmh 30.03 in1016.9 mb 0.00 in0.0 mm 0.00 in0.0 mm 0.00 in0.0 mm
07:32 AM 63.3°F17.4°C 61.9°F16.6°C 95% 2.9 mph SE4.7 kmh SE 4.9 mph7.9 kmh 30.03 in1016.9 mb 0.00 in0.0 mm 0.00 in0.0 mm 0.00 in0.0 mm
07:42 AM 63.7°F17.6°C 62.2°F16.8°C 95% 2.0 mph SE3.2 kmh SE 4.0 mph6.4 kmh 30.03 in1016.9 mb 0.00 in0.0 mm 0.00 in0.0 mm 0.00 in0.0 mm
07:52 AM 63.9°F17.7°C 62.1°F16.7°C 94% 0.9 mph SE1.4 kmh SE 2.0 mph3.2 kmh 30.03 in1016.9 mb 0.00 in0.0 mm 0.00 in0.0 mm 0.00 in0.0 mm
08:02 AM 64.4°F18.0°C 63.0°F17.2°C 95% 0.9 mph SE1.4 kmh SE 2.0 mph3.2 kmh 30.03 in1016.9 mb 0.00 in0.0 mm 0.00 in0.0 mm 0.00 in0.0 mm
08:12 AM 64.9°F18.3°C 63.5°F17.5°C 95% 0.9 mph SE1.4 kmh SE 2.9 mph4.7 kmh 30.03 in1016.9 mb 0.00 in0.0 mm 0.00 in0.0 mm 0.00 in0.0 mm
08:22 AM 65.5°F18.6°C 63.7°F17.6°C 94% 2.9 mph ESE4.7 kmh ESE 6.0 mph9.7 kmh 30.03 in1016.9 mb 0.00 in0.0 mm 0.00 in0.0 mm 0.00 in0.0 mm
08:32 AM 66.4°F19.1°C 64.6°F18.1°C 94% 2.9 mph E4.7 kmh E 6.0 mph9.7 kmh 30.03 in1016.9 mb 0.00 in0.0 mm 0.00 in0.0 mm 0.00 in0.0 mm
08:42 AM 67.1°F19.5°C 64.9°F18.3°C 93% 2.9 mph SE4.7 kmh SE 6.0 mph9.7 kmh 30.03 in1016.9 mb 0.00 in0.0 mm 0.00 in0.0 mm 0.00 in0.0 mm
08:52 AM 68.5°F20.3°C 65.1°F18.4°C 89% 4.0 mph E6.4 kmh E 6.0 mph9.7 kmh 30.03 in1016.9 mb 0.00 in0.0 mm 0.00 in0.0 mm 0.00 in0.0 mm
09:02 AM 68.9°F20.5°C 64.6°F18.1°C 86% 2.0 mph WSW3.2 kmh WSW 4.0 mph6.4 kmh 30.03 in1016.9 mb 0.00 in0.0 mm 0.00 in0.0 mm 0.00 in0.0 mm
09:12 AM 69.4°F20.8°C 64.4°F18.0°C 84% 2.0 mph NNW3.2 kmh NNW 4.0 mph6.4 kmh 30.03 in1016.9 mb 0.00 in0.0 mm 0.00 in0.0 mm 0.00 in0.0 mm
09:22 AM 70.5°F21.4°C 64.0°F17.8°C 80% 2.9 mph S4.7 kmh S 6.0 mph9.7 kmh 30.03 in1016.9 mb 0.00 in0.0 mm 0.00 in0.0 mm 0.00 in0.0 mm
09:33 AM 71.2°F21.8°C 64.4°F18.0°C 79% 2.0 mph SSW3.2 kmh SSW 4.9 mph7.9 kmh 30.04 in1017.3 mb 0.00 in0.0 mm 0.00 in0.0 mm 0.00 in0.0 mm
09:43 AM 72.0°F22.2°C 64.4°F18.0°C 77% 2.0 mph NNW3.2 kmh NNW 4.9 mph7.9 kmh 30.04 in1017.3 mb 0.00 in0.0 mm 0.00 in0.0 mm 0.00 in0.0 mm
09:53 AM 72.7°F22.6°C 63.9°F17.7°C 74% 4.9 mph WNW7.9 kmh WNW 11.0 mph17.7 kmh 30.04 in1017.3 mb 0.00 in0.0 mm 0.00 in0.0 mm 0.00 in0.0 mm
10:03 AM 72.3°F22.4°C 63.9°F17.7°C 75% 6.0 mph NW9.7 kmh NW 8.9 mph14.3 kmh 30.04 in1017.3 mb 0.00 in0.0 mm 0.00 in0.0 mm 0.00 in0.0 mm
10:13 AM 72.3°F22.4°C 63.5°F17.5°C 74% 6.0 mph SW9.7 kmh SW 10.1 mph16.3 kmh 30.04 in1017.3 mb 0.00 in0.0 mm 0.00 in0.0 mm 0.00 in0.0 mm
10:23 AM 72.7°F22.6°C 63.9°F17.7°C 74% 6.9 mph WSW11.1 kmh WSW 12.1 mph19.5 kmh 30.05 in1017.6 mb 0.00 in0.0 mm 0.00 in0.0 mm 0.00 in0.0 mm
10:33 AM 72.5°F22.5°C 63.0°F17.2°C 72% 6.9 mph WSW11.1 kmh WSW 12.1 mph19.5 kmh 30.05 in1017.6 mb 0.00 in0.0 mm 0.00 in0.0 mm 0.00 in0.0 mm
10:43 AM 73.4°F23.0°C 63.9°F17.7°C 72% 6.0 mph WSW9.7 kmh WSW 11.0 mph17.7 kmh 30.05 in1017.6 mb 0.00 in0.0 mm 0.00 in0.0 mm 0.00 in0.0 mm
10:53 AM 73.6°F23.1°C 63.1°F17.3°C 70% 4.9 mph SSW7.9 kmh SSW 8.9 mph14.3 kmh 30.05 in1017.6 mb 0.00 in0.0 mm 0.00 in0.0 mm 0.00 in0.0 mm
11:03 AM 73.9°F23.3°C 63.5°F17.5°C 70% 4.9 mph SW7.9 kmh SW 8.9 mph14.3 kmh 30.05 in1017.6 mb 0.00 in0.0 mm 0.00 in0.0 mm 0.00 in0.0 mm
11:13 AM 75.0°F23.9°C 63.7°F17.6°C 68% 4.0 mph SSE6.4 kmh SSE 10.1 mph16.3 kmh 30.04 in1017.3 mb 0.00 in0.0 mm 0.00 in0.0 mm 0.00 in0.0 mm
11:23 AM 74.5°F23.6°C 63.1°F17.3°C 68% 6.0 mph WNW9.7 kmh WNW 10.1 mph16.3 kmh 30.04 in1017.3 mb 0.00 in0.0 mm 0.00 in0.0 mm 0.00 in0.0 mm
11:33 AM 73.6°F23.1°C 62.8°F17.1°C 69% 6.0 mph NW9.7 kmh NW 11.0 mph17.7 kmh 30.04 in1017.3 mb 0.00 in0.0 mm 0.00 in0.0 mm 0.00 in0.0 mm
11:43 AM 74.1°F23.4°C 63.3°F17.4°C 69% 4.9 mph S7.9 kmh S 12.1 mph19.5 kmh 30.04 in1017.3 mb 0.00 in0.0 mm 0.00 in0.0 mm 0.00 in0.0 mm
11:53 AM 74.7°F23.7°C 63.9°F17.7°C 69% 8.1 mph NW13.0 kmh NW 13.0 mph20.9 kmh 30.04 in1017.3 mb 0.00 in0.0 mm 0.00 in0.0 mm 0.00 in0.0 mm
12:03 PM 74.7°F23.7°C 63.3°F17.4°C 68% 8.1 mph NW13.0 kmh NW 14.1 mph22.7 kmh 30.04 in1017.3 mb 0.00 in0.0 mm 0.00 in0.0 mm 0.00 in0.0 mm
12:13 PM 75.4°F24.1°C 63.1°F17.3°C 66% 6.0 mph W9.7 kmh W 12.1 mph19.5 kmh 30.04 in1017.3 mb 0.00 in0.0 mm 0.00 in0.0 mm 0.00 in0.0 mm
12:23 PM 75.7°F24.3°C 63.1°F17.3°C 65% 6.0 mph SW9.7 kmh SW 13.0 mph20.9 kmh 30.04 in1017.3 mb 0.00 in0.0 mm 0.00 in0.0 mm 0.00 in0.0 mm
12:33 PM 76.3°F24.6°C 63.7°F17.6°C 65% 4.9 mph WSW7.9 kmh WSW 10.1 mph16.3 kmh 30.03 in1016.9 mb 0.00 in0.0 mm 0.00 in0.0 mm 0.00 in0.0 mm
12:43 PM 77.2°F25.1°C 63.1°F17.3°C 62% 6.0 mph WSW9.7 kmh WSW 12.1 mph19.5 kmh 30.03 in1016.9 mb 0.00 in0.0 mm 0.00 in0.0 mm 0.00 in0.0 mm
12:53 PM 77.2°F25.1°C 63.1°F17.3°C 62% 6.0 mph WSW9.7 kmh WSW 15.0 mph24.1 kmh 30.03 in1016.9 mb 0.00 in0.0 mm 0.00 in0.0 mm 0.00 in0.0 mm
01:03 PM 77.2°F25.1°C 63.1°F17.3°C 62% 6.9 mph SW11.1 kmh SW 13.0 mph20.9 kmh 30.03 in1016.9 mb 0.00 in0.0 mm 0.00 in0.0 mm 0.00 in0.0 mm
01:13 PM 77.5°F25.3°C 63.5°F17.5°C 62% 6.0 mph WNW9.7 kmh WNW 13.0 mph20.9 kmh 30.03 in1016.9 mb 0.00 in0.0 mm 0.00 in0.0 mm 0.00 in0.0 mm
01:23 PM 77.0°F25.0°C 63.0°F17.2°C 62% 8.1 mph NW13.0 kmh NW 14.1 mph22.7 kmh 30.03 in1016.9 mb 0.00 in0.0 mm 0.00 in0.0 mm 0.00 in0.0 mm
01:33 PM 75.7°F24.3°C 62.8°F17.1°C 64% 6.9 mph SW11.1 kmh SW 17.0 mph27.4 kmh 30.03 in1016.9 mb 0.00 in0.0 mm 0.00 in0.0 mm 0.00 in0.0 mm
01:43 PM 76.5°F24.7°C 64.2°F17.9°C 66% 8.9 mph NW14.3 kmh NW 16.1 mph25.9 kmh 30.03 in1016.9 mb 0.00 in0.0 mm 0.00 in0.0 mm 0.00 in0.0 mm
01:53 PM 76.1°F24.5°C 63.9°F17.7°C 66% 8.1 mph W13.0 kmh W 17.0 mph27.4 kmh 30.03 in1016.9 mb 0.00 in0.0 mm 0.00 in0.0 mm 0.00 in0.0 mm
02:03 PM 75.7°F24.3°C 64.0°F17.8°C 67% 8.1 mph WSW13.0 kmh WSW 16.1 mph25.9 kmh 30.03 in1016.9 mb 0.00 in0.0 mm 0.00 in0.0 mm 0.00 in0.0 mm
02:13 PM 74.5°F23.6°C 63.1°F17.3°C 68% 6.9 mph WNW11.1 kmh WNW 13.0 mph20.9 kmh 30.03 in1016.9 mb 0.00 in0.0 mm 0.00 in0.0 mm 0.00 in0.0 mm
02:23 PM 74.5°F23.6°C 63.7°F17.6°C 69% 8.1 mph WSW13.0 kmh WSW 14.1 mph22.7 kmh 30.03 in1016.9 mb 0.00 in0.0 mm 0.00 in0.0 mm 0.00 in0.0 mm
02:33 PM 73.6°F23.1°C 63.1°F17.3°C 70% 8.1 mph NW13.0 kmh NW 14.1 mph22.7 kmh 30.03 in1016.9 mb 0.00 in0.0 mm 0.00 in0.0 mm 0.00 in0.0 mm
02:43 PM 73.2°F22.9°C 62.8°F17.1°C 70% 6.9 mph NW11.1 kmh NW 14.1 mph22.7 kmh 30.03 in1016.9 mb 0.00 in0.0 mm 0.00 in0.0 mm 0.00 in0.0 mm
02:53 PM 72.3°F22.4°C 62.4°F16.9°C 71% 6.9 mph W11.1 kmh W 13.0 mph20.9 kmh 30.03 in1016.9 mb 0.00 in0.0 mm 0.00 in0.0 mm 0.00 in0.0 mm
03:03 PM 72.0°F22.2°C 62.4°F16.9°C 72% 4.9 mph W7.9 kmh W 14.1 mph22.7 kmh 30.03 in1016.9 mb 0.00 in0.0 mm 0.00 in0.0 mm 0.00 in0.0 mm
03:13 PM 71.1°F21.7°C 61.9°F16.6°C 73% 8.9 mph NW14.3 kmh NW 14.1 mph22.7 kmh 30.03 in1016.9 mb 0.00 in0.0 mm 0.00 in0.0 mm 0.00 in0.0 mm
03:23 PM 71.1°F21.7°C 62.4°F16.9°C 74% 6.0 mph WSW9.7 kmh WSW 13.0 mph20.9 kmh 30.03 in1016.9 mb 0.00 in0.0 mm 0.00 in0.0 mm 0.00 in0.0 mm
03:33 PM 71.1°F21.7°C 61.9°F16.6°C 73% 6.0 mph W9.7 kmh W 11.0 mph17.7 kmh 30.03 in1016.9 mb 0.00 in0.0 mm 0.00 in0.0 mm 0.00 in0.0 mm
03:43 PM 70.5°F21.4°C 61.9°F16.6°C 74% 6.0 mph WSW9.7 kmh WSW 11.0 mph17.7 kmh 30.03 in1016.9 mb 0.00 in0.0 mm 0.00 in0.0 mm 0.00 in0.0 mm
03:53 PM 70.0°F21.1°C 62.1°F16.7°C 76% 6.9 mph WNW11.1 kmh WNW 12.1 mph19.5 kmh 30.03 in1016.9 mb 0.00 in0.0 mm 0.00 in0.0 mm 0.00 in0.0 mm
04:03 PM 69.4°F20.8°C 62.2°F16.8°C 78% 4.9 mph NW7.9 kmh NW 11.0 mph17.7 kmh 30.03 in1016.9 mb 0.00 in0.0 mm 0.00 in0.0 mm 0.00 in0.0 mm
04:13 PM 68.5°F20.3°C 62.1°F16.7°C 80% 6.9 mph NNW11.1 kmh NNW 11.0 mph17.7 kmh 30.03 in1016.9 mb 0.00 in0.0 mm 0.00 in0.0 mm 0.00 in0.0 mm
04:23 PM 68.4°F20.2°C 62.2°F16.8°C 81% 4.9 mph NW7.9 kmh NW 11.0 mph17.7 kmh 30.03 in1016.9 mb 0.00 in0.0 mm 0.00 in0.0 mm 0.00 in0.0 mm
04:33 PM 68.0°F20.0°C 61.9°F16.6°C 81% 6.9 mph WNW11.1 kmh WNW 11.0 mph17.7 kmh 30.03 in1016.9 mb 0.00 in0.0 mm 0.00 in0.0 mm 0.00 in0.0 mm
04:43 PM 67.8°F19.9°C 61.7°F16.5°C 81% 6.0 mph NW9.7 kmh NW 11.0 mph17.7 kmh 30.03 in1016.9 mb 0.00 in0.0 mm 0.00 in0.0 mm 0.00 in0.0 mm
04:53 PM 67.8°F19.9°C 61.7°F16.5°C 81% 6.0 mph NW9.7 kmh NW 10.1 mph16.3 kmh 30.03 in1016.9 mb 0.00 in0.0 mm 0.00 in0.0 mm 0.00 in0.0 mm
05:03 PM 67.8°F19.9°C 61.7°F16.5°C 81% 4.0 mph WSW6.4 kmh WSW 11.0 mph17.7 kmh 30.03 in1016.9 mb 0.00 in0.0 mm 0.00 in0.0 mm 0.00 in0.0 mm
05:14 PM 67.8°F19.9°C 61.7°F16.5°C 81% 4.9 mph 7.9 kmh 10.1 mph16.3 kmh 30.03 in1016.9 mb 0.00 in0.0 mm 0.00 in0.0 mm 0.00 in0.0 mm
05:24 PM 67.8°F19.9°C 61.7°F16.5°C 81% 4.0 mph NNW6.4 kmh NNW 10.1 mph16.3 kmh 30.03 in1016.9 mb 0.00 in0.0 mm 0.00 in0.0 mm 0.00 in0.0 mm
05:34 PM 67.6°F19.8°C 61.5°F16.4°C 81% 4.9 mph W7.9 kmh W 10.1 mph16.3 kmh 30.03 in1016.9 mb 0.00 in0.0 mm 0.00 in0.0 mm 0.00 in0.0 mm
05:44 PM 67.5°F19.7°C 61.3°F16.3°C 81% 6.0 mph W9.7 kmh W 11.0 mph17.7 kmh 30.03 in1016.9 mb 0.00 in0.0 mm 0.00 in0.0 mm 0.00 in0.0 mm
05:54 PM 67.3°F19.6°C 61.2°F16.2°C 81% 4.0 mph NW6.4 kmh NW 8.1 mph13.0 kmh 30.03 in1016.9 mb 0.00 in0.0 mm 0.00 in0.0 mm 0.00 in0.0 mm
06:04 PM 66.9°F19.4°C 61.2°F16.2°C 82% 4.9 mph NW7.9 kmh NW 10.1 mph16.3 kmh 30.03 in1016.9 mb 0.00 in0.0 mm 0.00 in0.0 mm 0.00 in0.0 mm
06:14 PM 66.9°F19.4°C 61.2°F16.2°C 82% 4.0 mph NW6.4 kmh NW 8.1 mph13.0 kmh 30.03 in1016.9 mb 0.00 in0.0 mm 0.00 in0.0 mm 0.00 in0.0 mm
06:24 PM 66.7°F19.3°C 61.3°F16.3°C 83% 4.9 mph NW7.9 kmh NW 8.9 mph14.3 kmh 30.02 in1016.6 mb 0.00 in0.0 mm 0.00 in0.0 mm 0.00 in0.0 mm
06:34 PM 66.6°F19.2°C 61.2°F16.2°C 83% 2.9 mph NW4.7 kmh NW 6.9 mph11.1 kmh 30.03 in1016.9 mb 0.00 in0.0 mm 0.00 in0.0 mm 0.00 in0.0 mm
06:44 PM 66.4°F19.1°C 61.0°F16.1°C 83% 4.9 mph W7.9 kmh W 10.1 mph16.3 kmh 30.03 in1016.9 mb 0.00 in0.0 mm 0.00 in0.0 mm 0.00 in0.0 mm
06:54 PM 66.2°F19.0°C 60.8°F16.0°C 83% 4.9 mph NW7.9 kmh NW 8.9 mph14.3 kmh 30.03 in1016.9 mb 0.00 in0.0 mm 0.00 in0.0 mm 0.00 in0.0 mm
07:04 PM 65.8°F18.8°C 60.6°F15.9°C 83% 4.0 mph W6.4 kmh W 8.1 mph13.0 kmh 30.03 in1016.9 mb 0.00 in0.0 mm 0.00 in0.0 mm 0.00 in0.0 mm
07:14 PM 65.3°F18.5°C 60.3°F15.7°C 84% 4.0 mph NW6.4 kmh NW 8.9 mph14.3 kmh 30.03 in1016.9 mb 0.00 in0.0 mm 0.00 in0.0 mm 0.00 in0.0 mm
07:24 PM 64.8°F18.2°C 59.9°F15.5°C 84% 2.9 mph NW4.7 kmh NW 4.9 mph7.9 kmh 30.03 in1016.9 mb 0.00 in0.0 mm 0.00 in0.0 mm 0.00 in0.0 mm
07:34 PM 64.8°F18.2°C 60.4°F15.8°C 86% 2.0 mph NW3.2 kmh NW 4.0 mph6.4 kmh 30.04 in1017.3 mb 0.00 in0.0 mm 0.00 in0.0 mm 0.00 in0.0 mm
07:44 PM 64.6°F18.1°C 60.3°F15.7°C 86% 2.0 mph NW3.2 kmh NW 4.0 mph6.4 kmh 30.04 in1017.3 mb 0.00 in0.0 mm 0.00 in0.0 mm 0.00 in0.0 mm
07:54 PM 64.8°F18.2°C 60.4°F15.8°C 86% 2.0 mph WNW3.2 kmh WNW 4.0 mph6.4 kmh 30.04 in1017.3 mb 0.00 in0.0 mm 0.00 in0.0 mm 0.00 in0.0 mm
08:04 PM 64.6°F18.1°C 60.3°F15.7°C 86% 0.9 mph SW1.4 kmh SW 2.9 mph4.7 kmh 30.04 in1017.3 mb 0.00 in0.0 mm 0.00 in0.0 mm 0.00 in0.0 mm
08:14 PM 64.6°F18.1°C 60.3°F15.7°C 86% 0.9 mph WSW1.4 kmh WSW 2.0 mph3.2 kmh 30.04 in1017.3 mb 0.00 in0.0 mm 0.00 in0.0 mm 0.00 in0.0 mm
08:24 PM 64.6°F18.1°C 60.3°F15.7°C 86% 2.0 mph W3.2 kmh W 2.9 mph4.7 kmh 30.05 in1017.6 mb 0.00 in0.0 mm 0.00 in0.0 mm 0.00 in0.0 mm
08:34 PM 64.8°F18.2°C 60.4°F15.8°C 86% 0.9 mph W1.4 kmh W 2.9 mph4.7 kmh 30.05 in1017.6 mb 0.00 in0.0 mm 0.00 in0.0 mm 0.00 in0.0 mm
08:44 PM 64.8°F18.2°C 60.4°F15.8°C 86% Calm Calm 2.0 mph3.2 kmh 30.05 in1017.6 mb 0.00 in0.0 mm 0.00 in0.0 mm 0.00 in0.0 mm
08:54 PM 64.8°F18.2°C 60.4°F15.8°C 86% 0.9 mph SW1.4 kmh SW 4.0 mph6.4 kmh 30.05 in1017.6 mb 0.00 in0.0 mm 0.00 in0.0 mm 0.00 in0.0 mm
09:04 PM 64.9°F18.3°C 60.6°F15.9°C 86% 2.0 mph W3.2 kmh W 6.9 mph11.1 kmh 30.05 in1017.6 mb 0.00 in0.0 mm 0.00 in0.0 mm 0.00 in0.0 mm
09:14 PM 64.9°F18.3°C 60.6°F15.9°C 86% 2.9 mph WSW4.7 kmh WSW 4.9 mph7.9 kmh 30.05 in1017.6 mb 0.00 in0.0 mm 0.00 in0.0 mm 0.00 in0.0 mm
09:25 PM 65.1°F18.4°C 60.8°F16.0°C 86% 2.0 mph W3.2 kmh W 4.0 mph6.4 kmh 30.05 in1017.6 mb 0.00 in0.0 mm 0.00 in0.0 mm 0.00 in0.0 mm
09:35 PM 65.1°F18.4°C 60.8°F16.0°C 86% 0.9 mph WSW1.4 kmh WSW 4.0 mph6.4 kmh 30.05 in1017.6 mb 0.00 in0.0 mm 0.00 in0.0 mm 0.00 in0.0 mm
09:45 PM 65.1°F18.4°C 60.8°F16.0°C 86% 2.0 mph WSW3.2 kmh WSW 6.9 mph11.1 kmh 30.05 in1017.6 mb 0.00 in0.0 mm 0.00 in0.0 mm 0.00 in0.0 mm
09:55 PM 65.1°F18.4°C 60.8°F16.0°C 86% 2.9 mph W4.7 kmh W 6.9 mph11.1 kmh 30.05 in1017.6 mb 0.00 in0.0 mm 0.00 in0.0 mm 0.00 in0.0 mm
10:05 PM 65.1°F18.4°C 60.8°F16.0°C 86% 2.9 mph NW4.7 kmh NW 6.0 mph9.7 kmh 30.04 in1017.3 mb 0.00 in0.0 mm 0.00 in0.0 mm 0.00 in0.0 mm
10:15 PM 65.1°F18.4°C 60.8°F16.0°C 86% 2.9 mph WNW4.7 kmh WNW 8.1 mph13.0 kmh 30.04 in1017.3 mb 0.00 in0.0 mm 0.00 in0.0 mm 0.00 in0.0 mm
10:25 PM 65.1°F18.4°C 61.2°F16.2°C 87% 2.0 mph W3.2 kmh W 4.9 mph7.9 kmh 30.04 in1017.3 mb 0.00 in0.0 mm 0.00 in0.0 mm 0.00 in0.0 mm
10:35 PM 65.1°F18.4°C 61.2°F16.2°C 87% 2.0 mph NW3.2 kmh NW 4.0 mph6.4 kmh 30.04 in1017.3 mb 0.00 in0.0 mm 0.00 in0.0 mm 0.00 in0.0 mm
10:45 PM 65.1°F18.4°C 61.2°F16.2°C 87% 2.0 mph W3.2 kmh W 4.0 mph6.4 kmh 30.04 in1017.3 mb 0.00 in0.0 mm 0.00 in0.0 mm 0.00 in0.0 mm
10:55 PM 65.1°F18.4°C 61.5°F16.4°C 88% 2.0 mph W3.2 kmh W 4.0 mph6.4 kmh 30.04 in1017.3 mb 0.00 in0.0 mm 0.00 in0.0 mm 0.00 in0.0 mm
11:05 PM 64.9°F18.3°C 61.3°F16.3°C 88% 2.0 mph WSW3.2 kmh WSW 4.0 mph6.4 kmh 30.04 in1017.3 mb 0.00 in0.0 mm 0.00 in0.0 mm 0.00 in0.0 mm
11:15 PM 64.9°F18.3°C 61.3°F16.3°C 88% 0.9 mph W1.4 kmh W 2.9 mph4.7 kmh 30.03 in1016.9 mb 0.00 in0.0 mm 0.00 in0.0 mm 0.00 in0.0 mm
11:25 PM 64.9°F18.3°C 61.3°F16.3°C 88% 2.0 mph SW3.2 kmh SW 4.0 mph6.4 kmh 30.03 in1016.9 mb 0.00 in0.0 mm 0.00 in0.0 mm 0.00 in0.0 mm
11:36 PM 64.9°F18.3°C 61.3°F16.3°C 88% 2.0 mph SSW3.2 kmh SSW 4.0 mph6.4 kmh 30.03 in1016.9 mb 0.00 in0.0 mm 0.00 in0.0 mm 0.00 in0.0 mm
11:46 PM 64.9°F18.3°C 61.3°F16.3°C 88% 0.9 mph WSW1.4 kmh WSW 2.9 mph4.7 kmh 30.03 in1016.9 mb 0.00 in0.0 mm 0.00 in0.0 mm 0.00 in0.0 mm
11:56 PM 64.9°F18.3°C 61.7°F16.5°C 89% 2.0 mph W3.2 kmh W 4.0 mph6.4 kmh 30.03 in1016.9 mb 0.00 in0.0 mm 0.00 in0.0 mm 0.00 in0.0 mm